Time;durP1;ratioP1;P1;durP2;ratioP2;P2;SDS_P1;SDS_P2;PMS_P1;PMS_P2;Temp;Humidity;BMP_temperature;BMP_pressure;BME280_temperature;BME280_humidity;BME280_pressure;Samples;Min_cycle;Max_cycle;Signal;HPM_P1;HPM_P2
2024/03/20 00:00:11;;;;;;;13.97;7.20;;;;;;;;;;5113000;28;20293;-82
2024/03/20 00:02:38;;;;;;;11.47;7.63;;;;;;;;;;5113145;28;20198;-82
2024/03/20 00:05:06;;;;;;;13.80;7.50;;;;;;;;;;5113220;28;20262;-82
2024/03/20 00:07:33;;;;;;;11.80;7.50;;;;;;;;;;5113028;28;20206;-81
2024/03/20 00:10:00;;;;;;;14.33;7.33;;;;;;;;;;5113151;28;20322;-81
2024/03/20 00:12:27;;;;;;;11.63;7.17;;;;;;;;;;5112637;28;20291;-82
2024/03/20 00:14:56;;;;;;;12.03;7.20;;;;;;;;;;5112847;28;20216;-82
2024/03/20 00:17:23;;;;;;;12.43;6.77;;;;;;;;;;5112411;28;20963;-81
2024/03/20 00:19:51;;;;;;;9.40;6.67;;;;;;;;;;5112386;28;20672;-81
2024/03/20 00:22:18;;;;;;;10.90;7.27;;;;;;;;;;5112380;28;20201;-82
2024/03/20 00:24:45;;;;;;;11.97;7.23;;;;;;;;;;5111500;28;20321;-82
2024/03/20 00:27:12;;;;;;;11.87;7.00;;;;;;;;;;5112309;28;20292;-81
2024/03/20 00:29:39;;;;;;;9.20;6.30;;;;;;;;;;5112468;28;20259;-81
2024/03/20 00:32:09;;;;;;;10.33;6.97;;;;;;;;;;5112582;28;20193;-81
2024/03/20 00:34:36;;;;;;;9.57;6.60;;;;;;;;;;5112278;28;20198;-81
2024/03/20 00:37:04;;;;;;;12.90;6.90;;;;;;;;;;5112113;28;20627;-81
2024/03/20 00:39:31;;;;;;;11.37;6.77;;;;;;;;;;5112210;28;20217;-80
2024/03/20 00:41:58;;;;;;;9.50;6.40;;;;;;;;;;5111972;28;20222;-82
2024/03/20 00:44:25;;;;;;;9.73;6.50;;;;;;;;;;5111274;28;20225;-81
2024/03/20 00:46:53;;;;;;;10.50;6.80;;;;;;;;;;5112335;28;20236;-82
2024/03/20 00:49:21;;;;;;;12.50;6.63;;;;;;;;;;5111792;28;20229;-82
2024/03/20 00:51:48;;;;;;;10.97;6.73;;;;;;;;;;5111938;28;20289;-81
2024/03/20 00:54:15;;;;;;;14.50;7.00;;;;;;;;;;5111815;28;20280;-82
2024/03/20 00:56:43;;;;;;;11.97;6.87;;;;;;;;;;5111962;28;20309;-83
2024/03/20 00:59:10;;;;;;;13.00;7.03;;;;;;;;;;5111934;28;20284;-82
2024/03/20 01:01:37;;;;;;;9.27;6.33;;;;;;;;;;5111785;28;20227;-80
2024/03/20 01:04:04;;;;;;;10.60;6.80;;;;;;;;;;5101437;28;20233;-82
2024/03/20 01:06:33;;;;;;;10.83;6.40;;;;;;;;;;5091716;28;20270;-82
2024/03/20 01:09:00;;;;;;;13.23;6.37;;;;;;;;;;5090820;28;20252;-81
2024/03/20 01:11:27;;;;;;;9.20;6.57;;;;;;;;;;5091191;28;20260;-82
2024/03/20 01:13:54;;;;;;;12.73;6.93;;;;;;;;;;5106200;28;20241;-81
2024/03/20 01:16:22;;;;;;;12.17;7.23;;;;;;;;;;5111763;28;20225;-81
2024/03/20 01:18:49;;;;;;;10.40;5.97;;;;;;;;;;5111768;28;20280;-82
2024/03/20 01:21:16;;;;;;;9.00;6.30;;;;;;;;;;5111121;28;20221;-81
2024/03/20 01:23:44;;;;;;;12.03;6.63;;;;;;;;;;5110833;28;20312;-81
2024/03/20 01:26:13;;;;;;;11.37;7.30;;;;;;;;;;5111486;28;20221;-82
2024/03/20 01:28:40;;;;;;;10.00;6.77;;;;;;;;;;5111681;28;20743;-82
2024/03/20 01:31:07;;;;;;;12.50;7.37;;;;;;;;;;5110996;28;20326;-81
2024/03/20 01:33:34;;;;;;;10.80;6.67;;;;;;;;;;5111473;28;20298;-82
2024/03/20 01:36:02;;;;;;;11.83;7.07;;;;;;;;;;5111659;28;20785;-81
2024/03/20 01:38:29;;;;;;;10.77;6.40;;;;;;;;;;5110947;28;20558;-82
2024/03/20 01:40:58;;;;;;;11.97;7.20;;;;;;;;;;5073481;28;20289;-82
2024/03/20 01:43:25;;;;;;;12.00;6.67;;;;;;;;;;5070572;28;20234;-82
2024/03/20 01:45:52;;;;;;;12.63;6.57;;;;;;;;;;5070973;28;20219;-82
2024/03/20 01:48:20;;;;;;;9.03;7.17;;;;;;;;;;5071150;28;20205;-82
2024/03/20 01:50:47;;;;;;;11.00;7.27;;;;;;;;;;5070234;28;20227;-82
2024/03/20 01:53:15;;;;;;;10.70;6.83;;;;;;;;;;5070246;28;20616;-83
2024/03/20 01:55:42;;;;;;;11.07;7.37;;;;;;;;;;5074632;28;20273;-82
2024/03/20 01:58:11;;;;;;;12.07;8.17;;;;;;;;;;5074512;28;20726;-81
2024/03/20 02:00:39;;;;;;;12.00;7.20;;;;;;;;;;5074885;28;20230;-82
2024/03/20 02:03:06;;;;;;;10.00;7.00;;;;;;;;;;5074637;28;20195;-82
2024/03/20 02:05:34;;;;;;;9.50;6.37;;;;;;;;;;5074291;28;20226;-82
2024/03/20 02:08:01;;;;;;;11.73;7.30;;;;;;;;;;5074037;28;20230;-82
2024/03/20 02:10:28;;;;;;;12.63;8.10;;;;;;;;;;5074123;28;20258;-82
2024/03/20 02:13:05;;;;;;;9.03;6.63;;;;;;;;;;5087451;28;20289;-82
2024/03/20 02:15:34;;;;;;;9.90;6.43;;;;;;;;;;5115427;28;20204;-82
2024/03/20 02:18:01;;;;;;;9.87;6.90;;;;;;;;;;5114879;28;20689;-82
2024/03/20 02:20:28;;;;;;;8.70;6.03;;;;;;;;;;5114452;28;20288;-82
2024/03/20 02:22:58;;;;;;;10.50;6.63;;;;;;;;;;5114308;28;20831;-81
2024/03/20 02:25:28;;;;;;;10.63;6.90;;;;;;;;;;5114904;28;20215;-82
2024/03/20 02:27:55;;;;;;;10.50;6.80;;;;;;;;;;5115123;28;20205;-82
2024/03/20 02:30:22;;;;;;;9.13;6.23;;;;;;;;;;5114732;28;20309;-81
2024/03/20 02:32:49;;;;;;;8.20;6.13;;;;;;;;;;5114524;28;20288;-81
2024/03/20 02:35:17;;;;;;;10.50;6.70;;;;;;;;;;5114374;28;20229;-82
2024/03/20 02:37:44;;;;;;;10.77;6.33;;;;;;;;;;5114120;28;20276;-82
2024/03/20 02:40:13;;;;;;;9.27;6.90;;;;;;;;;;5114793;28;20272;-82
2024/03/20 02:42:41;;;;;;;12.37;6.93;;;;;;;;;;5114285;28;20198;-82
2024/03/20 02:45:09;;;;;;;10.10;7.37;;;;;;;;;;5114658;28;20233;-82
2024/03/20 02:47:36;;;;;;;10.17;7.00;;;;;;;;;;5114657;28;20194;-81
2024/03/20 02:50:03;;;;;;;11.90;6.93;;;;;;;;;;5099480;28;20683;-81
2024/03/20 02:52:30;;;;;;;10.07;6.70;;;;;;;;;;5084775;28;20234;-80
2024/03/20 02:54:57;;;;;;;11.17;7.17;;;;;;;;;;5093798;28;20324;-82
2024/03/20 02:57:26;;;;;;;12.73;7.93;;;;;;;;;;5093324;28;20250;-82
2024/03/20 02:59:53;;;;;;;10.07;6.83;;;;;;;;;;5093934;28;20214;-82
2024/03/20 03:02:20;;;;;;;13.13;7.53;;;;;;;;;;5093824;28;20288;-82
2024/03/20 03:04:48;;;;;;;13.77;7.70;;;;;;;;;;5093317;28;20211;-82
2024/03/20 03:07:15;;;;;;;10.87;7.27;;;;;;;;;;5092344;28;20243;-82
2024/03/20 03:09:42;;;;;;;11.03;7.27;;;;;;;;;;5093818;28;20213;-83
2024/03/20 03:12:10;;;;;;;10.60;6.80;;;;;;;;;;5093393;28;20240;-81
2024/03/20 03:14:39;;;;;;;10.70;7.07;;;;;;;;;;5113389;28;20206;-81
2024/03/20 03:17:06;;;;;;;10.77;7.47;;;;;;;;;;5113940;28;20218;-82
2024/03/20 03:19:33;;;;;;;10.50;7.00;;;;;;;;;;5113478;28;20225;-82
2024/03/20 03:22:00;;;;;;;10.83;7.10;;;;;;;;;;5113845;28;20747;-81
2024/03/20 03:24:28;;;;;;;9.53;6.77;;;;;;;;;;5113218;28;20636;-81
2024/03/20 03:26:55;;;;;;;10.93;6.47;;;;;;;;;;5112493;28;20194;-82
2024/03/20 03:29:22;;;;;;;9.97;6.70;;;;;;;;;;5113653;28;20297;-81
2024/03/20 03:31:51;;;;;;;11.17;6.10;;;;;;;;;;5113519;28;20647;-81
2024/03/20 03:34:18;;;;;;;8.87;5.97;;;;;;;;;;5112877;28;20285;-81
2024/03/20 03:36:45;;;;;;;10.20;6.83;;;;;;;;;;5113283;28;20209;-81
2024/03/20 03:39:14;;;;;;;9.80;6.70;;;;;;;;;;5113085;28;20651;-82
2024/03/20 03:41:42;;;;;;;9.03;6.73;;;;;;;;;;5113767;28;20300;-82
2024/03/20 03:44:09;;;;;;;10.23;6.67;;;;;;;;;;5113494;28;20190;-82
2024/03/20 03:46:36;;;;;;;9.57;6.07;;;;;;;;;;5113258;28;20232;-81
2024/03/20 03:49:05;;;;;;;10.63;6.60;;;;;;;;;;5099768;28;20230;-82
2024/03/20 03:51:33;;;;;;;12.27;6.77;;;;;;;;;;5092935;28;20309;-82
2024/03/20 03:54:00;;;;;;;10.50;6.57;;;;;;;;;;5093198;28;20277;-82
2024/03/20 03:56:27;;;;;;;9.57;6.37;;;;;;;;;;5092774;28;20282;-81
2024/03/20 03:58:54;;;;;;;9.73;6.40;;;;;;;;;;5092846;28;20282;-81
2024/03/20 04:01:22;;;;;;;10.70;7.10;;;;;;;;;;5092311;28;20285;-82
2024/03/20 04:03:49;;;;;;;10.70;6.50;;;;;;;;;;5092324;28;20703;-82
2024/03/20 04:06:18;;;;;;;10.40;6.87;;;;;;;;;;5092300;28;20286;-80
2024/03/20 04:08:45;;;;;;;10.53;6.83;;;;;;;;;;5092507;28;20211;-81
2024/03/20 04:11:13;;;;;;;9.03;6.20;;;;;;;;;;5092535;28;20669;-81
2024/03/20 04:13:40;;;;;;;8.80;6.57;;;;;;;;;;5104854;28;20288;-81
2024/03/20 04:16:08;;;;;;;9.23;7.03;;;;;;;;;;5112627;28;20280;-81
2024/03/20 04:18:35;;;;;;;10.90;6.90;;;;;;;;;;5112428;28;20675;-81
2024/03/20 04:21:02;;;;;;;11.67;6.67;;;;;;;;;;5112361;28;20742;-80
2024/03/20 04:23:31;;;;;;;12.13;6.87;;;;;;;;;;5112347;28;20679;-82
2024/03/20 04:25:58;;;;;;;8.43;6.30;;;;;;;;;;5112769;28;20221;-81
2024/03/20 04:28:25;;;;;;;9.37;6.67;;;;;;;;;;5112546;28;20284;-81
2024/03/20 04:30:52;;;;;;;10.00;6.80;;;;;;;;;;5112360;28;20222;-80
2024/03/20 04:33:20;;;;;;;10.23;6.57;;;;;;;;;;5111956;28;20258;-81
2024/03/20 04:35:47;;;;;;;9.00;6.30;;;;;;;;;;5112862;28;20200;-81
2024/03/20 04:38:14;;;;;;;8.37;6.03;;;;;;;;;;5112317;28;20225;-81
2024/03/20 04:40:43;;;;;;;9.73;6.40;;;;;;;;;;5112402;28;20285;-82
2024/03/20 04:43:10;;;;;;;9.43;6.50;;;;;;;;;;5112197;28;20795;-81
2024/03/20 04:45:36;;;;;;;8.90;6.23;;;;;;;;;;5112212;28;20196;-82
2024/03/20 04:48:04;;;;;;;13.07;6.57;;;;;;;;;;5112354;28;20554;-80
2024/03/20 04:50:31;;;;;;;12.80;7.30;;;;;;;;;;5111775;28;20285;-81
2024/03/20 04:52:58;;;;;;;10.30;6.60;;;;;;;;;;5111650;28;20221;-81
2024/03/20 04:55:26;;;;;;;9.03;6.43;;;;;;;;;;5111994;28;20221;-82
2024/03/20 04:57:54;;;;;;;10.47;7.07;;;;;;;;;;5111981;28;20198;-81
2024/03/20 05:00:21;;;;;;;9.97;6.60;;;;;;;;;;5111827;28;20221;-82
2024/03/20 05:02:49;;;;;;;9.20;6.57;;;;;;;;;;5111215;28;20292;-81
2024/03/20 05:05:16;;;;;;;9.30;6.60;;;;;;;;;;5111937;28;20244;-81
2024/03/20 05:07:44;;;;;;;9.40;6.27;;;;;;;;;;5111973;28;20213;-82
2024/03/20 05:10:11;;;;;;;8.10;6.40;;;;;;;;;;5111399;28;20281;-82
2024/03/20 05:12:38;;;;;;;13.50;6.47;;;;;;;;;;5111624;28;20309;-81
2024/03/20 05:15:07;;;;;;;10.63;6.60;;;;;;;;;;5111434;28;20283;-82
2024/03/20 05:17:34;;;;;;;10.83;6.87;;;;;;;;;;5111385;28;20197;-82
2024/03/20 05:20:00;;;;;;;10.77;6.80;;;;;;;;;;5111456;28;20197;-82
2024/03/20 05:22:28;;;;;;;10.63;6.80;;;;;;;;;;5111246;28;20749;-81
2024/03/20 05:24:54;;;;;;;12.87;7.10;;;;;;;;;;5111197;28;20261;-81
2024/03/20 05:27:21;;;;;;;10.83;6.83;;;;;;;;;;5111730;28;20198;-81
2024/03/20 05:29:47;;;;;;;10.03;7.23;;;;;;;;;;5116264;28;20284;-81
2024/03/20 05:32:16;;;;;;;13.13;7.57;;;;;;;;;;5117974;28;20231;-81
2024/03/20 05:34:42;;;;;;;10.57;7.23;;;;;;;;;;5082467;28;20289;-82
2024/03/20 05:37:10;;;;;;;14.30;7.77;;;;;;;;;;5078115;28;20198;-81
2024/03/20 05:39:36;;;;;;;10.93;7.63;;;;;;;;;;5077694;28;20284;-82
2024/03/20 05:42:04;;;;;;;9.73;7.07;;;;;;;;;;5077562;28;20590;-82
2024/03/20 05:44:30;;;;;;;10.53;7.30;;;;;;;;;;5076746;28;20197;-81
2024/03/20 05:46:57;;;;;;;10.63;6.90;;;;;;;;;;5077382;28;20576;-80
2024/03/20 05:49:25;;;;;;;12.40;7.77;;;;;;;;;;5077463;28;20234;-82
2024/03/20 05:51:52;;;;;;;12.03;7.67;;;;;;;;;;5077504;28;20224;-83
2024/03/20 05:54:18;;;;;;;10.10;7.80;;;;;;;;;;5077262;28;20282;-81
2024/03/20 05:56:45;;;;;;;12.70;7.93;;;;;;;;;;5077745;28;20206;-82
2024/03/20 05:59:12;;;;;;;10.00;7.20;;;;;;;;;;5077002;28;20285;-81
2024/03/20 06:01:39;;;;;;;10.80;7.80;;;;;;;;;;5077524;28;20203;-82
2024/03/20 06:04:06;;;;;;;9.03;6.80;;;;;;;;;;5077728;28;20195;-82
2024/03/20 06:06:35;;;;;;;9.53;7.40;;;;;;;;;;5077120;28;20195;-82
2024/03/20 06:09:02;;;;;;;10.97;7.20;;;;;;;;;;5077288;28;20294;-83
2024/03/20 06:11:30;;;;;;;12.80;7.23;;;;;;;;;;5077205;28;20261;-81
2024/03/20 06:13:59;;;;;;;13.20;7.70;;;;;;;;;;5107054;28;20229;-81
2024/03/20 06:16:26;;;;;;;12.93;7.57;;;;;;;;;;5117885;28;20868;-80
2024/03/20 06:18:52;;;;;;;11.73;7.17;;;;;;;;;;5117618;28;20638;-82
2024/03/20 06:21:20;;;;;;;11.27;7.47;;;;;;;;;;5117606;28;20194;-81
2024/03/20 06:23:48;;;;;;;10.07;7.30;;;;;;;;;;5117797;27;20269;-81
2024/03/20 06:26:15;;;;;;;11.37;7.20;;;;;;;;;;5118019;28;20201;-81
2024/03/20 06:28:41;;;;;;;11.27;7.30;;;;;;;;;;5117089;28;20236;-81
2024/03/20 06:31:09;;;;;;;9.37;6.77;;;;;;;;;;5118129;28;20293;-81
2024/03/20 06:33:35;;;;;;;11.30;6.53;;;;;;;;;;5117704;27;20636;-81
2024/03/20 06:36:03;;;;;;;9.77;6.87;;;;;;;;;;5117920;28;20201;-80
2024/03/20 06:38:29;;;;;;;10.13;7.17;;;;;;;;;;5117865;28;20280;-79
2024/03/20 06:40:58;;;;;;;12.37;7.47;;;;;;;;;;5115030;28;20744;-80
2024/03/20 06:43:29;;;;;;;10.43;7.60;;;;;;;;;;5114575;28;20204;-81
2024/03/20 06:45:57;;;;;;;10.80;7.73;;;;;;;;;;5114664;28;20584;-80
2024/03/20 06:48:27;;;;;;;13.10;7.80;;;;;;;;;;5114333;28;20288;-80
2024/03/20 06:50:58;;;;;;;12.13;7.03;;;;;;;;;;5114591;28;20193;-81
2024/03/20 06:53:24;;;;;;;8.43;6.20;;;;;;;;;;5114356;28;20229;-81
2024/03/20 06:55:53;;;;;;;11.83;7.17;;;;;;;;;;5114339;28;20755;-81
2024/03/20 06:58:21;;;;;;;13.30;6.90;;;;;;;;;;5114351;28;20194;-80
2024/03/20 07:00:48;;;;;;;10.43;6.50;;;;;;;;;;5114078;28;20205;-81
2024/03/20 07:03:15;;;;;;;12.90;7.00;;;;;;;;;;5113407;28;20248;-79
2024/03/20 07:05:42;;;;;;;12.03;7.53;;;;;;;;;;5091253;28;20289;-80
2024/03/20 07:08:09;;;;;;;10.90;7.37;;;;;;;;;;5065193;28;20211;-80
2024/03/20 07:10:37;;;;;;;13.20;7.73;;;;;;;;;;5093362;28;20243;-78
2024/03/20 07:13:04;;;;;;;13.73;7.20;;;;;;;;;;5095228;28;20222;-79
2024/03/20 07:15:33;;;;;;;12.83;7.03;;;;;;;;;;5093666;28;20197;-80
2024/03/20 07:17:59;;;;;;;11.97;7.50;;;;;;;;;;5093260;28;20248;-80
2024/03/20 07:20:27;;;;;;;10.83;6.57;;;;;;;;;;5092846;28;20206;-80
2024/03/20 07:22:53;;;;;;;9.90;6.80;;;;;;;;;;5076626;28;20231;-80
2024/03/20 07:25:22;;;;;;;11.20;7.50;;;;;;;;;;5072361;28;20567;-81
2024/03/20 07:27:48;;;;;;;9.40;6.50;;;;;;;;;;5072614;28;20226;-81
2024/03/20 07:30:16;;;;;;;10.43;6.23;;;;;;;;;;5073495;28;20202;-78
2024/03/20 07:32:43;;;;;;;12.17;6.17;;;;;;;;;;5072636;28;20330;-78
2024/03/20 07:35:11;;;;;;;8.67;6.13;;;;;;;;;;5072755;28;20285;-80
2024/03/20 07:37:38;;;;;;;10.63;6.03;;;;;;;;;;5073022;28;20657;-80
2024/03/20 07:40:05;;;;;;;7.83;5.50;;;;;;;;;;5089036;28;20190;-79
2024/03/20 07:42:32;;;;;;;6.83;4.90;;;;;;;;;;5092236;28;20194;-79
2024/03/20 07:44:59;;;;;;;8.43;4.73;;;;;;;;;;5092526;28;20202;-78
2024/03/20 07:47:25;;;;;;;6.13;4.33;;;;;;;;;;5092509;28;20229;-79
2024/03/20 07:49:54;;;;;;;15.93;11.50;;;;;;;;;;5092832;28;20302;-79
2024/03/20 07:52:20;;;;;;;11.17;8.13;;;;;;;;;;5092269;28;20321;-82
2024/03/20 07:54:48;;;;;;;7.13;4.37;;;;;;;;;;5092258;28;20202;-80
2024/03/20 07:57:14;;;;;;;18.00;9.07;;;;;;;;;;5091383;28;20274;-81
2024/03/20 07:59:42;;;;;;;15.32;11.05;;;;;;;;;;5091904;28;20203;-81
2024/03/20 08:02:08;;;;;;;6.50;5.57;;;;;;;;;;5072226;28;20211;-81
2024/03/20 08:04:38;;;;;;;7.22;4.00;;;;;;;;;;5076444;28;20222;-82
2024/03/20 08:07:07;;;;;;;6.07;4.18;;;;;;;;;;5092357;28;20205;-81
2024/03/20 08:09:33;;;;;;;7.40;3.60;;;;;;;;;;5091282;28;20248;-82
2024/03/20 08:12:01;;;;;;;5.90;4.10;;;;;;;;;;5091988;28;20226;-82
2024/03/20 08:14:27;;;;;;;7.65;4.45;;;;;;;;;;5091750;28;20210;-82
2024/03/20 08:16:55;;;;;;;7.68;4.97;;;;;;;;;;5092562;28;20337;-82
2024/03/20 08:19:21;;;;;;;6.07;4.22;;;;;;;;;;5091981;28;20229;-82
2024/03/20 08:21:49;;;;;;;12.80;8.55;;;;;;;;;;5092208;28;20203;-82
2024/03/20 08:24:17;;;;;;;6.32;4.68;;;;;;;;;;5091786;28;20302;-81
2024/03/20 08:26:44;;;;;;;8.07;4.60;;;;;;;;;;5092123;28;20195;-81
2024/03/20 08:29:11;;;;;;;8.38;4.50;;;;;;;;;;5091640;28;20201;-83
2024/03/20 08:31:40;;;;;;;7.60;4.15;;;;;;;;;;5091594;28;20729;-80
2024/03/20 08:34:06;;;;;;;6.07;4.82;;;;;;;;;;5091645;28;20236;-79
2024/03/20 08:36:33;;;;;;;6.10;4.40;;;;;;;;;;5091578;28;20212;-82
2024/03/20 08:39:00;;;;;;;6.43;3.63;;;;;;;;;;5091172;28;20201;-80
2024/03/20 08:41:28;;;;;;;5.82;3.67;;;;;;;;;;5091056;28;20571;-81
2024/03/20 08:43:55;;;;;;;7.82;3.55;;;;;;;;;;5090094;28;20601;-81
2024/03/20 08:46:24;;;;;;;5.50;3.67;;;;;;;;;;5091764;28;20202;-82
2024/03/20 08:48:50;;;;;;;5.50;3.58;;;;;;;;;;5091743;28;20212;-84
2024/03/20 08:51:18;;;;;;;8.07;3.85;;;;;;;;;;5091566;28;20198;-82
2024/03/20 08:53:44;;;;;;;4.47;3.58;;;;;;;;;;5090886;28;20313;-83
2024/03/20 08:56:11;;;;;;;7.63;4.07;;;;;;;;;;5091682;28;20198;-83
2024/03/20 08:58:39;;;;;;;5.05;3.58;;;;;;;;;;5091059;28;20306;-81
2024/03/20 09:01:06;;;;;;;3.88;3.50;;;;;;;;;;5091185;28;20198;-81
2024/03/20 09:03:32;;;;;;;5.22;3.50;;;;;;;;;;5090697;28;20226;-82
2024/03/20 09:05:59;;;;;;;5.22;3.63;;;;;;;;;;5091184;28;20293;-83
2024/03/20 09:08:26;;;;;;;7.72;5.07;;;;;;;;;;5090610;28;20195;-80
2024/03/20 09:10:53;;;;;;;7.85;4.53;;;;;;;;;;5090463;28;20198;-81
2024/03/20 09:13:19;;;;;;;6.70;4.28;;;;;;;;;;5091254;28;20222;-81
2024/03/20 09:15:48;;;;;;;7.22;5.38;;;;;;;;;;5091292;28;20285;-82
2024/03/20 09:18:14;;;;;;;4.93;3.97;;;;;;;;;;5090777;28;20669;-82
2024/03/20 09:20:42;;;;;;;9.07;6.68;;;;;;;;;;5090909;28;20733;-82
2024/03/20 09:23:08;;;;;;;7.80;4.60;;;;;;;;;;5090730;28;20306;-81
2024/03/20 09:25:35;;;;;;;8.82;5.03;;;;;;;;;;5091236;28;20252;-81
2024/03/20 09:28:02;;;;;;;12.90;7.45;;;;;;;;;;5090850;28;20222;-83
2024/03/20 09:30:29;;;;;;;7.50;4.70;;;;;;;;;;5091263;28;20225;-83
2024/03/20 09:32:57;;;;;;;7.55;5.28;;;;;;;;;;5090916;28;20230;-83
2024/03/20 09:35:24;;;;;;;4.07;3.55;;;;;;;;;;5091142;28;20225;-83
2024/03/20 09:37:50;;;;;;;6.13;3.70;;;;;;;;;;5090474;28;20281;-82
2024/03/20 09:40:22;;;;;;;4.63;2.88;;;;;;;;;;5090989;28;20198;-83
2024/03/20 09:42:48;;;;;;;5.82;3.42;;;;;;;;;;5091065;28;20229;-82
2024/03/20 09:45:16;;;;;;;5.22;3.33;;;;;;;;;;5090861;28;20198;-83
2024/03/20 09:47:43;;;;;;;5.30;3.75;;;;;;;;;;5090672;28;20273;-82
2024/03/20 09:50:13;;;;;;;4.50;3.13;;;;;;;;;;5091037;28;20228;-82
2024/03/20 09:52:39;;;;;;;4.65;3.15;;;;;;;;;;5090556;28;20219;-82
2024/03/20 09:55:07;;;;;;;4.47;3.25;;;;;;;;;;5090889;28;20281;-83
2024/03/20 09:57:34;;;;;;;7.00;3.60;;;;;;;;;;5091513;28;20285;-82
2024/03/20 10:00:05;;;;;;;4.55;3.03;;;;;;;;;;5090757;28;20198;-82
2024/03/20 10:02:31;;;;;;;6.70;3.22;;;;;;;;;;5090628;28;20578;-83
2024/03/20 10:04:59;;;;;;;5.10;3.10;;;;;;;;;;5090565;28;20207;-83
2024/03/20 10:07:27;;;;;;;4.88;3.25;;;;;;;;;;5090125;28;20194;-83
2024/03/20 10:09:55;;;;;;;5.18;3.35;;;;;;;;;;5089687;28;20643;-82
2024/03/20 10:12:22;;;;;;;4.57;3.33;;;;;;;;;;5090026;28;20607;-83
2024/03/20 10:14:49;;;;;;;7.82;3.00;;;;;;;;;;5091643;28;20206;-81
2024/03/20 10:17:15;;;;;;;4.82;3.30;;;;;;;;;;5094134;28;20287;-82
2024/03/20 10:19:43;;;;;;;4.72;2.72;;;;;;;;;;5094594;28;20198;-83
2024/03/20 10:22:09;;;;;;;5.25;3.20;;;;;;;;;;5093690;28;20286;-82
2024/03/20 10:24:38;;;;;;;3.63;2.83;;;;;;;;;;5094160;28;20611;-82
2024/03/20 10:27:05;;;;;;;4.15;2.10;;;;;;;;;;5093730;28;20289;-82
2024/03/20 10:29:35;;;;;;;5.53;2.55;;;;;;;;;;5094148;28;20230;-83
2024/03/20 10:32:02;;;;;;;4.88;2.90;;;;;;;;;;5093983;28;20620;-82
2024/03/20 10:34:29;;;;;;;5.72;2.80;;;;;;;;;;5093529;28;20217;-82
2024/03/20 10:36:56;;;;;;;3.22;2.80;;;;;;;;;;5093972;28;20303;-81
2024/03/20 10:39:27;;;;;;;3.33;2.40;;;;;;;;;;5093790;28;20225;-82
2024/03/20 10:41:55;;;;;;;5.97;2.10;;;;;;;;;;5093865;28;20201;-83
2024/03/20 10:44:22;;;;;;;4.22;1.73;;;;;;;;;;5093986;28;20198;-82
2024/03/20 10:46:49;;;;;;;2.97;1.52;;;;;;;;;;5093887;28;20665;-83
2024/03/20 10:49:19;;;;;;;2.92;1.63;;;;;;;;;;5093594;28;20212;-83
2024/03/20 10:51:45;;;;;;;2.88;1.77;;;;;;;;;;5093440;28;20255;-82
2024/03/20 10:54:13;;;;;;;3.10;1.60;;;;;;;;;;5093447;28;20222;-83
2024/03/20 10:56:43;;;;;;;2.15;1.50;;;;;;;;;;5093040;28;20279;-82
2024/03/20 10:59:16;;;;;;;5.03;1.70;;;;;;;;;;5093183;28;20552;-82
2024/03/20 11:02:03;;;;;;;2.40;1.83;;;;;;;;;;5092540;28;20277;-82
2024/03/20 11:04:36;;;;;;;2.00;1.33;;;;;;;;;;5092963;28;20575;-83
2024/03/20 11:07:28;;;;;;;2.30;1.52;;;;;;;;;;5093581;28;20202;-83
2024/03/20 11:09:56;;;;;;;3.55;1.40;;;;;;;;;;5092842;28;20572;-83
2024/03/20 11:12:27;;;;;;;2.72;1.55;;;;;;;;;;5095244;28;20233;-83
2024/03/20 11:14:56;;;;;;;2.17;1.58;;;;;;;;;;5114046;28;20198;-82
2024/03/20 11:17:24;;;;;;;2.63;1.83;;;;;;;;;;5113770;28;20204;-82
2024/03/20 11:19:51;;;;;;;2.10;1.40;;;;;;;;;;5113337;28;20244;-83
2024/03/20 11:22:21;;;;;;;3.60;1.55;;;;;;;;;;5113864;28;20588;-84
2024/03/20 11:24:47;;;;;;;2.30;1.33;;;;;;;;;;5113346;28;20229;-85
2024/03/20 11:27:15;;;;;;;1.75;1.20;;;;;;;;;;5112551;28;20663;-83
2024/03/20 11:29:41;;;;;;;2.28;1.65;;;;;;;;;;5113560;28;20281;-82
2024/03/20 11:32:13;;;;;;;2.20;1.33;;;;;;;;;;5113147;28;20201;-82
2024/03/20 11:34:41;;;;;;;3.22;1.40;;;;;;;;;;5112877;28;20240;-83
2024/03/20 11:37:14;;;;;;;3.28;1.15;;;;;;;;;;5113609;28;20205;-83
2024/03/20 11:39:41;;;;;;;2.17;1.20;;;;;;;;;;5105307;28;20289;-84
2024/03/20 11:42:08;;;;;;;2.22;1.10;;;;;;;;;;5092785;28;20696;-84
2024/03/20 11:44:34;;;;;;;2.65;2.17;;;;;;;;;;5092853;28;20201;-83
2024/03/20 11:47:02;;;;;;;1.92;1.40;;;;;;;;;;5092595;28;20604;-85
2024/03/20 11:49:30;;;;;;;1.90;1.63;;;;;;;;;;5092570;28;20287;-83
2024/03/20 11:51:59;;;;;;;3.20;1.83;;;;;;;;;;5092603;28;20202;-83
2024/03/20 11:54:26;;;;;;;2.15;1.90;;;;;;;;;;5092931;28;20228;-84
2024/03/20 11:56:53;;;;;;;3.53;1.88;;;;;;;;;;5092606;28;20248;-83
2024/03/20 11:59:19;;;;;;;2.78;1.40;;;;;;;;;;5092974;28;20285;-82
2024/03/20 12:01:54;;;;;;;3.33;1.30;;;;;;;;;;5091850;28;20194;-83
2024/03/20 12:04:20;;;;;;;3.10;1.20;;;;;;;;;;5091942;28;20284;-83
2024/03/20 12:06:49;;;;;;;3.15;1.30;;;;;;;;;;5092503;28;20198;-84
2024/03/20 12:09:16;;;;;;;2.05;1.48;;;;;;;;;;5092352;28;20257;-84
2024/03/20 12:11:43;;;;;;;2.10;1.13;;;;;;;;;;5091934;28;20194;-83
2024/03/20 12:14:10;;;;;;;2.33;1.30;;;;;;;;;;5109143;28;20344;-84
2024/03/20 12:16:38;;;;;;;1.95;1.02;;;;;;;;;;5110982;28;20247;-83
2024/03/20 12:19:07;;;;;;;2.45;1.40;;;;;;;;;;5112862;28;20279;-84
2024/03/20 12:21:34;;;;;;;2.25;1.35;;;;;;;;;;5112214;28;20664;-84
2024/03/20 12:24:01;;;;;;;2.78;1.50;;;;;;;;;;5112560;28;20320;-84
2024/03/20 12:26:29;;;;;;;2.70;1.10;;;;;;;;;;5112248;28;20194;-82
2024/03/20 12:28:56;;;;;;;2.25;1.17;;;;;;;;;;5110755;28;20201;-82
2024/03/20 12:31:23;;;;;;;1.38;0.95;;;;;;;;;;5111878;28;20281;-84
2024/03/20 12:33:50;;;;;;;1.83;0.90;;;;;;;;;;5112404;28;20252;-84
2024/03/20 12:36:18;;;;;;;2.58;1.00;;;;;;;;;;5112164;28;20292;-84
2024/03/20 12:38:45;;;;;;;2.20;1.00;;;;;;;;;;5110666;28;20196;-84
2024/03/20 12:41:15;;;;;;;1.20;1.00;;;;;;;;;;5112439;28;20201;-85
2024/03/20 12:43:41;;;;;;;2.60;1.33;;;;;;;;;;5112135;28;20257;-83
2024/03/20 12:46:08;;;;;;;5.78;1.63;;;;;;;;;;5112079;28;20614;-83
2024/03/20 12:48:34;;;;;;;2.30;1.10;;;;;;;;;;5112095;28;20284;-83
2024/03/20 12:51:03;;;;;;;2.67;1.15;;;;;;;;;;5111755;28;20584;-83
2024/03/20 12:53:30;;;;;;;1.85;1.20;;;;;;;;;;5111987;28;20225;-84
2024/03/20 12:55:57;;;;;;;2.33;1.33;;;;;;;;;;5111782;28;20294;-84
2024/03/20 12:58:25;;;;;;;1.60;1.15;;;;;;;;;;5112119;28;20229;-83
2024/03/20 13:00:53;;;;;;;2.47;1.38;;;;;;;;;;5111195;28;20206;-85
2024/03/20 13:03:19;;;;;;;2.45;1.48;;;;;;;;;;5112069;28;20194;-85
2024/03/20 13:05:48;;;;;;;2.17;1.52;;;;;;;;;;5111646;28;20206;-84
2024/03/20 13:08:15;;;;;;;2.08;1.48;;;;;;;;;;5111447;28;20197;-84
2024/03/20 13:10:42;;;;;;;2.33;1.50;;;;;;;;;;5111697;28;20278;-84
2024/03/20 13:13:16;;;;;;;2.22;1.20;;;;;;;;;;5111743;28;20315;-85
2024/03/20 13:15:45;;;;;;;3.63;1.45;;;;;;;;;;5111173;28;20193;-84
2024/03/20 13:18:28;;;;;;;67.95;6.72;;;;;;;;;;5111732;28;20288;-84
2024/03/20 13:20:55;;;;;;;7.97;1.50;;;;;;;;;;5112021;28;20201;-83
2024/03/20 13:23:21;;;;;;;4.65;1.50;;;;;;;;;;5111930;28;20230;-83
2024/03/20 13:25:49;;;;;;;5.30;1.42;;;;;;;;;;5111284;28;20654;-85
2024/03/20 13:28:16;;;;;;;3.85;1.60;;;;;;;;;;5111424;28;20193;-84
2024/03/20 13:30:48;;;;;;;3.30;1.40;;;;;;;;;;5110854;28;20208;-83
2024/03/20 13:33:15;;;;;;;1.15;0.95;;;;;;;;;;5111435;28;20576;-85
2024/03/20 13:35:42;;;;;;;1.55;0.98;;;;;;;;;;5111223;28;20208;-84
2024/03/20 13:38:14;;;;;;;1.92;0.90;;;;;;;;;;5111247;28;20190;-83
2024/03/20 13:40:42;;;;;;;2.25;0.90;;;;;;;;;;5111633;28;20212;-83
2024/03/20 13:43:39;;;;;;;2.72;1.20;;;;;;;;;;5110749;28;20296;-84
2024/03/20 13:46:09;;;;;;;15.45;2.03;;;;;;;;;;5111721;28;20204;-83
2024/03/20 13:48:35;;;;;;;2.92;1.33;;;;;;;;;;5111293;28;20625;-84
2024/03/20 13:51:03;;;;;;;1.63;1.00;;;;;;;;;;5114029;28;20566;-83
2024/03/20 13:53:29;;;;;;;2.53;1.10;;;;;;;;;;5115294;28;20225;-84
2024/03/20 13:55:57;;;;;;;1.45;0.88;;;;;;;;;;5115307;28;20730;-84
2024/03/20 13:58:25;;;;;;;1.85;0.93;;;;;;;;;;5115130;28;20193;-83
2024/03/20 14:00:53;;;;;;;1.17;1.00;;;;;;;;;;5115822;28;20201;-84
2024/03/20 14:03:21;;;;;;;6.05;1.33;;;;;;;;;;5114938;28;20586;-84
2024/03/20 14:05:48;;;;;;;1.92;0.90;;;;;;;;;;5115094;28;20898;-83
2024/03/20 14:08:18;;;;;;;2.55;1.25;;;;;;;;;;5115220;28;20221;-84
2024/03/20 14:10:45;;;;;;;3.65;1.30;;;;;;;;;;5114997;28;20240;-83
2024/03/20 14:13:14;;;;;;;2.13;0.93;;;;;;;;;;5106945;28;20775;-84
2024/03/20 14:15:41;;;;;;;2.70;1.30;;;;;;;;;;5114627;28;20680;-85
2024/03/20 14:18:08;;;;;;;4.25;1.70;;;;;;;;;;5114408;28;20281;-83
2024/03/20 14:20:37;;;;;;;17.13;2.65;;;;;;;;;;5115057;28;20202;-84
2024/03/20 14:23:03;;;;;;;2.85;1.05;;;;;;;;;;5114793;28;20281;-83
2024/03/20 14:25:33;;;;;;;1.50;1.00;;;;;;;;;;5115042;28;20659;-83
2024/03/20 14:28:00;;;;;;;2.35;1.23;;;;;;;;;;5114245;28;20687;-83
2024/03/20 14:30:27;;;;;;;1.48;0.95;;;;;;;;;;5114639;28;20197;-81
2024/03/20 14:32:54;;;;;;;24.48;3.08;;;;;;;;;;5114499;28;20280;-83
2024/03/20 14:35:21;;;;;;;6.88;1.45;;;;;;;;;;5114075;28;20194;-84
2024/03/20 14:37:49;;;;;;;1.60;1.20;;;;;;;;;;5114523;28;20206;-80
2024/03/20 14:40:23;;;;;;;2.15;1.45;;;;;;;;;;5114265;28;20284;-81